sensor_id;sensor_type;location;lat;lon;timestamp;P1;durP1;ratioP1;P2;durP2;ratioP2
4744;SDS011;2386;42.138;24.746;2023-12-07T00:01:10;34.60;;;18.37;;
4744;SDS011;2386;42.138;24.746;2023-12-07T00:03:35;31.53;;;16.47;;
4744;SDS011;2386;42.138;24.746;2023-12-07T00:06:01;31.00;;;16.13;;
4744;SDS011;2386;42.138;24.746;2023-12-07T00:08:26;33.00;;;16.20;;
4744;SDS011;2386;42.138;24.746;2023-12-07T00:10:52;32.67;;;16.13;;
4744;SDS011;2386;42.138;24.746;2023-12-07T00:13:20;26.37;;;14.77;;
4744;SDS011;2386;42.138;24.746;2023-12-07T00:15:46;28.57;;;15.90;;
4744;SDS011;2386;42.138;24.746;2023-12-07T00:18:11;26.67;;;15.57;;
4744;SDS011;2386;42.138;24.746;2023-12-07T00:20:37;33.10;;;16.43;;
4744;SDS011;2386;42.138;24.746;2023-12-07T00:23:02;31.27;;;16.47;;
4744;SDS011;2386;42.138;24.746;2023-12-07T00:25:28;29.30;;;16.80;;
4744;SDS011;2386;42.138;24.746;2023-12-07T00:27:53;26.87;;;15.97;;
4744;SDS011;2386;42.138;24.746;2023-12-07T00:30:18;32.50;;;17.37;;
4744;SDS011;2386;42.138;24.746;2023-12-07T00:32:44;31.37;;;16.97;;
4744;SDS011;2386;42.138;24.746;2023-12-07T00:35:10;28.40;;;15.47;;
4744;SDS011;2386;42.138;24.746;2023-12-07T00:37:35;32.60;;;16.50;;
4744;SDS011;2386;42.138;24.746;2023-12-07T00:40:01;31.60;;;16.50;;
4744;SDS011;2386;42.138;24.746;2023-12-07T00:42:27;25.93;;;14.53;;
4744;SDS011;2386;42.138;24.746;2023-12-07T00:44:53;24.13;;;14.40;;
4744;SDS011;2386;42.138;24.746;2023-12-07T00:47:18;27.80;;;16.27;;
4744;SDS011;2386;42.138;24.746;2023-12-07T00:49:44;29.33;;;15.47;;
4744;SDS011;2386;42.138;24.746;2023-12-07T00:52:09;31.37;;;15.13;;
4744;SDS011;2386;42.138;24.746;2023-12-07T00:54:35;28.37;;;15.17;;
4744;SDS011;2386;42.138;24.746;2023-12-07T00:57:00;24.77;;;14.17;;
4744;SDS011;2386;42.138;24.746;2023-12-07T00:59:25;23.83;;;13.90;;
4744;SDS011;2386;42.138;24.746;2023-12-07T01:01:51;23.23;;;14.20;;
4744;SDS011;2386;42.138;24.746;2023-12-07T01:04:16;26.53;;;14.20;;
4744;SDS011;2386;42.138;24.746;2023-12-07T01:06:42;25.43;;;14.13;;
4744;SDS011;2386;42.138;24.746;2023-12-07T01:09:08;18.27;;;12.40;;
4744;SDS011;2386;42.138;24.746;2023-12-07T01:11:38;20.60;;;12.70;;
4744;SDS011;2386;42.138;24.746;2023-12-07T01:14:05;22.57;;;14.17;;
4744;SDS011;2386;42.138;24.746;2023-12-07T01:16:31;21.33;;;13.27;;
4744;SDS011;2386;42.138;24.746;2023-12-07T01:18:56;19.83;;;13.93;;
4744;SDS011;2386;42.138;24.746;2023-12-07T01:21:23;23.90;;;13.30;;
4744;SDS011;2386;42.138;24.746;2023-12-07T01:23:48;20.97;;;13.13;;
4744;SDS011;2386;42.138;24.746;2023-12-07T01:26:13;18.13;;;11.70;;
4744;SDS011;2386;42.138;24.746;2023-12-07T01:28:39;20.53;;;12.37;;
4744;SDS011;2386;42.138;24.746;2023-12-07T01:31:04;19.17;;;11.93;;
4744;SDS011;2386;42.138;24.746;2023-12-07T01:33:29;18.00;;;10.90;;
4744;SDS011;2386;42.138;24.746;2023-12-07T01:35:55;15.97;;;10.50;;
4744;SDS011;2386;42.138;24.746;2023-12-07T01:38:20;18.23;;;10.83;;
4744;SDS011;2386;42.138;24.746;2023-12-07T01:40:46;16.23;;;10.63;;
4744;SDS011;2386;42.138;24.746;2023-12-07T01:43:11;15.63;;;10.30;;
4744;SDS011;2386;42.138;24.746;2023-12-07T01:45:37;16.20;;;9.50;;
4744;SDS011;2386;42.138;24.746;2023-12-07T01:48:02;15.90;;;9.70;;
4744;SDS011;2386;42.138;24.746;2023-12-07T01:50:27;18.37;;;11.43;;
4744;SDS011;2386;42.138;24.746;2023-12-07T01:52:54;22.53;;;14.27;;
4744;SDS011;2386;42.138;24.746;2023-12-07T01:55:25;26.60;;;14.30;;
4744;SDS011;2386;42.138;24.746;2023-12-07T01:57:52;21.87;;;13.97;;
4744;SDS011;2386;42.138;24.746;2023-12-07T02:00:18;24.07;;;15.00;;
4744;SDS011;2386;42.138;24.746;2023-12-07T02:02:44;22.60;;;14.03;;
4744;SDS011;2386;42.138;24.746;2023-12-07T02:05:10;28.70;;;14.23;;
4744;SDS011;2386;42.138;24.746;2023-12-07T02:07:37;30.33;;;15.03;;
4744;SDS011;2386;42.138;24.746;2023-12-07T02:10:04;35.60;;;13.63;;
4744;SDS011;2386;42.138;24.746;2023-12-07T02:12:30;27.43;;;14.10;;
4744;SDS011;2386;42.138;24.746;2023-12-07T02:14:55;23.07;;;13.67;;
4744;SDS011;2386;42.138;24.746;2023-12-07T02:17:24;26.33;;;14.50;;
4744;SDS011;2386;42.138;24.746;2023-12-07T02:23:13;27.53;;;14.97;;
4744;SDS011;2386;42.138;24.746;2023-12-07T02:25:26;24.30;;;15.27;;
4744;SDS011;2386;42.138;24.746;2023-12-07T02:27:57;22.33;;;14.53;;
4744;SDS011;2386;42.138;24.746;2023-12-07T02:30:22;25.20;;;14.07;;
4744;SDS011;2386;42.138;24.746;2023-12-07T02:32:48;24.80;;;14.37;;
4744;SDS011;2386;42.138;24.746;2023-12-07T02:35:13;22.27;;;13.87;;
4744;SDS011;2386;42.138;24.746;2023-12-07T02:37:41;25.33;;;15.27;;
4744;SDS011;2386;42.138;24.746;2023-12-07T02:40:09;23.27;;;13.10;;
4744;SDS011;2386;42.138;24.746;2023-12-07T02:42:39;29.13;;;14.93;;
4744;SDS011;2386;42.138;24.746;2023-12-07T02:45:06;23.47;;;13.67;;
4744;SDS011;2386;42.138;24.746;2023-12-07T02:47:33;24.20;;;13.90;;
4744;SDS011;2386;42.138;24.746;2023-12-07T02:49:58;25.77;;;14.30;;
4744;SDS011;2386;42.138;24.746;2023-12-07T02:52:24;23.10;;;12.90;;
4744;SDS011;2386;42.138;24.746;2023-12-07T02:54:49;18.70;;;12.00;;
4744;SDS011;2386;42.138;24.746;2023-12-07T02:57:15;22.23;;;12.57;;
4744;SDS011;2386;42.138;24.746;2023-12-07T02:59:40;18.40;;;12.53;;
4744;SDS011;2386;42.138;24.746;2023-12-07T03:02:05;19.80;;;12.90;;
4744;SDS011;2386;42.138;24.746;2023-12-07T03:04:31;20.77;;;13.07;;
4744;SDS011;2386;42.138;24.746;2023-12-07T03:06:57;24.43;;;13.00;;
4744;SDS011;2386;42.138;24.746;2023-12-07T03:09:22;22.20;;;12.97;;
4744;SDS011;2386;42.138;24.746;2023-12-07T03:11:48;21.17;;;12.10;;
4744;SDS011;2386;42.138;24.746;2023-12-07T03:14:13;19.10;;;12.00;;
4744;SDS011;2386;42.138;24.746;2023-12-07T03:16:39;27.53;;;13.00;;
4744;SDS011;2386;42.138;24.746;2023-12-07T03:19:04;20.80;;;12.47;;
4744;SDS011;2386;42.138;24.746;2023-12-07T03:21:29;23.10;;;14.40;;
4744;SDS011;2386;42.138;24.746;2023-12-07T03:23:55;31.37;;;16.27;;
4744;SDS011;2386;42.138;24.746;2023-12-07T03:26:20;29.97;;;16.73;;
4744;SDS011;2386;42.138;24.746;2023-12-07T03:28:46;30.63;;;17.63;;
4744;SDS011;2386;42.138;24.746;2023-12-07T03:31:11;26.70;;;16.97;;
4744;SDS011;2386;42.138;24.746;2023-12-07T03:33:36;38.33;;;18.13;;
4744;SDS011;2386;42.138;24.746;2023-12-07T03:36:03;25.50;;;16.90;;
4744;SDS011;2386;42.138;24.746;2023-12-07T03:38:29;28.67;;;17.23;;
4744;SDS011;2386;42.138;24.746;2023-12-07T03:40:54;31.57;;;17.10;;
4744;SDS011;2386;42.138;24.746;2023-12-07T03:43:19;30.40;;;17.57;;
4744;SDS011;2386;42.138;24.746;2023-12-07T03:45:45;31.30;;;17.93;;
4744;SDS011;2386;42.138;24.746;2023-12-07T03:48:11;27.30;;;16.30;;
4744;SDS011;2386;42.138;24.746;2023-12-07T03:50:37;31.73;;;17.10;;
4744;SDS011;2386;42.138;24.746;2023-12-07T03:53:02;31.27;;;17.23;;
4744;SDS011;2386;42.138;24.746;2023-12-07T03:55:28;42.93;;;19.13;;
4744;SDS011;2386;42.138;24.746;2023-12-07T03:57:53;31.47;;;18.20;;
4744;SDS011;2386;42.138;24.746;2023-12-07T04:00:18;29.90;;;16.60;;
4744;SDS011;2386;42.138;24.746;2023-12-07T04:02:44;31.83;;;18.00;;
4744;SDS011;2386;42.138;24.746;2023-12-07T04:05:09;35.03;;;17.77;;
4744;SDS011;2386;42.138;24.746;2023-12-07T04:07:34;32.90;;;17.20;;
4744;SDS011;2386;42.138;24.746;2023-12-07T04:10:00;28.63;;;17.67;;
4744;SDS011;2386;42.138;24.746;2023-12-07T04:12:25;35.90;;;17.33;;
4744;SDS011;2386;42.138;24.746;2023-12-07T04:14:51;30.77;;;17.03;;
4744;SDS011;2386;42.138;24.746;2023-12-07T04:17:19;40.87;;;17.83;;
4744;SDS011;2386;42.138;24.746;2023-12-07T04:19:45;28.90;;;17.47;;
4744;SDS011;2386;42.138;24.746;2023-12-07T04:22:11;30.57;;;17.73;;
4744;SDS011;2386;42.138;24.746;2023-12-07T04:24:36;38.20;;;17.30;;
4744;SDS011;2386;42.138;24.746;2023-12-07T04:27:02;32.03;;;17.37;;
4744;SDS011;2386;42.138;24.746;2023-12-07T04:29:27;36.50;;;18.53;;
4744;SDS011;2386;42.138;24.746;2023-12-07T04:31:52;33.57;;;17.07;;
4744;SDS011;2386;42.138;24.746;2023-12-07T04:34:18;29.80;;;15.47;;
4744;SDS011;2386;42.138;24.746;2023-12-07T04:36:43;35.50;;;17.23;;
4744;SDS011;2386;42.138;24.746;2023-12-07T04:39:09;35.63;;;17.67;;
4744;SDS011;2386;42.138;24.746;2023-12-07T04:41:35;34.80;;;17.70;;
4744;SDS011;2386;42.138;24.746;2023-12-07T04:44:00;35.67;;;17.80;;
4744;SDS011;2386;42.138;24.746;2023-12-07T04:46:25;30.67;;;16.80;;
4744;SDS011;2386;42.138;24.746;2023-12-07T04:48:51;29.13;;;16.53;;
4744;SDS011;2386;42.138;24.746;2023-12-07T04:51:16;33.47;;;18.00;;
4744;SDS011;2386;42.138;24.746;2023-12-07T04:53:42;37.13;;;19.90;;
4744;SDS011;2386;42.138;24.746;2023-12-07T04:56:07;31.60;;;17.70;;
4744;SDS011;2386;42.138;24.746;2023-12-07T04:58:32;31.63;;;18.83;;
4744;SDS011;2386;42.138;24.746;2023-12-07T05:00:58;37.07;;;19.70;;
4744;SDS011;2386;42.138;24.746;2023-12-07T05:03:24;31.70;;;19.60;;
4744;SDS011;2386;42.138;24.746;2023-12-07T05:05:50;37.43;;;20.13;;
4744;SDS011;2386;42.138;24.746;2023-12-07T05:08:15;44.70;;;21.07;;
4744;SDS011;2386;42.138;24.746;2023-12-07T05:10:41;37.10;;;19.47;;
4744;SDS011;2386;42.138;24.746;2023-12-07T05:13:06;45.27;;;21.67;;
4744;SDS011;2386;42.138;24.746;2023-12-07T05:15:31;40.73;;;20.90;;
4744;SDS011;2386;42.138;24.746;2023-12-07T05:17:57;36.63;;;20.00;;
4744;SDS011;2386;42.138;24.746;2023-12-07T05:20:22;33.17;;;19.10;;
4744;SDS011;2386;42.138;24.746;2023-12-07T05:22:49;36.20;;;19.80;;
4744;SDS011;2386;42.138;24.746;2023-12-07T05:25:15;35.40;;;20.00;;
4744;SDS011;2386;42.138;24.746;2023-12-07T05:27:40;34.40;;;19.80;;
4744;SDS011;2386;42.138;24.746;2023-12-07T05:30:06;40.50;;;19.60;;
4744;SDS011;2386;42.138;24.746;2023-12-07T05:32:32;39.90;;;20.00;;
4744;SDS011;2386;42.138;24.746;2023-12-07T05:34:58;35.50;;;20.23;;
4744;SDS011;2386;42.138;24.746;2023-12-07T05:37:23;38.47;;;20.77;;
4744;SDS011;2386;42.138;24.746;2023-12-07T05:39:48;37.53;;;21.33;;
4744;SDS011;2386;42.138;24.746;2023-12-07T05:42:14;41.50;;;21.80;;
4744;SDS011;2386;42.138;24.746;2023-12-07T05:44:39;37.87;;;21.17;;
4744;SDS011;2386;42.138;24.746;2023-12-07T05:47:05;37.10;;;19.97;;
4744;SDS011;2386;42.138;24.746;2023-12-07T05:49:30;35.87;;;20.13;;
4744;SDS011;2386;42.138;24.746;2023-12-07T05:51:56;41.10;;;20.53;;
4744;SDS011;2386;42.138;24.746;2023-12-07T05:54:21;37.60;;;21.50;;
4744;SDS011;2386;42.138;24.746;2023-12-07T05:56:49;31.80;;;19.43;;
4744;SDS011;2386;42.138;24.746;2023-12-07T05:59:14;41.77;;;20.57;;
4744;SDS011;2386;42.138;24.746;2023-12-07T06:01:40;40.70;;;21.30;;
4744;SDS011;2386;42.138;24.746;2023-12-07T06:04:08;37.00;;;20.13;;
4744;SDS011;2386;42.138;24.746;2023-12-07T06:06:34;38.30;;;20.37;;
4744;SDS011;2386;42.138;24.746;2023-12-07T06:08:59;40.60;;;20.43;;
4744;SDS011;2386;42.138;24.746;2023-12-07T06:11:25;51.30;;;23.90;;
4744;SDS011;2386;42.138;24.746;2023-12-07T06:13:50;46.47;;;23.73;;
4744;SDS011;2386;42.138;24.746;2023-12-07T06:16:16;43.70;;;24.90;;
4744;SDS011;2386;42.138;24.746;2023-12-07T06:18:43;49.17;;;25.47;;
4744;SDS011;2386;42.138;24.746;2023-12-07T06:21:09;53.97;;;24.30;;
4744;SDS011;2386;42.138;24.746;2023-12-07T06:23:34;42.50;;;23.70;;
4744;SDS011;2386;42.138;24.746;2023-12-07T06:26:00;44.40;;;24.13;;
4744;SDS011;2386;42.138;24.746;2023-12-07T06:28:27;58.00;;;24.77;;
4744;SDS011;2386;42.138;24.746;2023-12-07T06:30:52;45.87;;;22.63;;
4744;SDS011;2386;42.138;24.746;2023-12-07T06:33:18;43.87;;;23.87;;
4744;SDS011;2386;42.138;24.746;2023-12-07T06:35:43;50.50;;;28.00;;
4744;SDS011;2386;42.138;24.746;2023-12-07T06:38:10;57.07;;;32.40;;
4744;SDS011;2386;42.138;24.746;2023-12-07T06:40:35;60.70;;;32.43;;
4744;SDS011;2386;42.138;24.746;2023-12-07T06:43:00;58.57;;;30.03;;
4744;SDS011;2386;42.138;24.746;2023-12-07T06:45:26;55.70;;;29.97;;
4744;SDS011;2386;42.138;24.746;2023-12-07T06:47:51;63.53;;;33.37;;
4744;SDS011;2386;42.138;24.746;2023-12-07T06:50:16;71.30;;;35.13;;
4744;SDS011;2386;42.138;24.746;2023-12-07T06:52:42;69.43;;;32.80;;
4744;SDS011;2386;42.138;24.746;2023-12-07T06:55:07;62.77;;;32.53;;
4744;SDS011;2386;42.138;24.746;2023-12-07T06:57:35;58.33;;;31.03;;
4744;SDS011;2386;42.138;24.746;2023-12-07T07:00:01;60.17;;;29.73;;
4744;SDS011;2386;42.138;24.746;2023-12-07T07:02:30;51.63;;;29.53;;
4744;SDS011;2386;42.138;24.746;2023-12-07T07:04:56;51.60;;;30.07;;
4744;SDS011;2386;42.138;24.746;2023-12-07T07:07:21;52.47;;;29.90;;
4744;SDS011;2386;42.138;24.746;2023-12-07T07:09:46;48.57;;;28.80;;
4744;SDS011;2386;42.138;24.746;2023-12-07T07:12:12;49.60;;;27.40;;
4744;SDS011;2386;42.138;24.746;2023-12-07T07:14:37;48.83;;;28.57;;
4744;SDS011;2386;42.138;24.746;2023-12-07T07:17:03;46.77;;;27.70;;
4744;SDS011;2386;42.138;24.746;2023-12-07T07:19:29;50.10;;;28.90;;
4744;SDS011;2386;42.138;24.746;2023-12-07T07:21:55;50.20;;;28.70;;
4744;SDS011;2386;42.138;24.746;2023-12-07T07:24:20;51.43;;;28.10;;
4744;SDS011;2386;42.138;24.746;2023-12-07T07:26:46;45.07;;;28.53;;
4744;SDS011;2386;42.138;24.746;2023-12-07T07:29:11;47.90;;;28.20;;
4744;SDS011;2386;42.138;24.746;2023-12-07T07:31:36;49.47;;;27.17;;
4744;SDS011;2386;42.138;24.746;2023-12-07T07:34:02;49.53;;;25.50;;
4744;SDS011;2386;42.138;24.746;2023-12-07T07:36:27;38.63;;;24.40;;
4744;SDS011;2386;42.138;24.746;2023-12-07T07:38:54;44.67;;;25.40;;
4744;SDS011;2386;42.138;24.746;2023-12-07T07:41:19;42.77;;;24.17;;
4744;SDS011;2386;42.138;24.746;2023-12-07T07:43:45;50.20;;;24.77;;
4744;SDS011;2386;42.138;24.746;2023-12-07T07:46:10;38.90;;;22.93;;
4744;SDS011;2386;42.138;24.746;2023-12-07T07:48:36;43.77;;;23.70;;
4744;SDS011;2386;42.138;24.746;2023-12-07T07:51:02;44.10;;;25.07;;
4744;SDS011;2386;42.138;24.746;2023-12-07T07:53:31;39.30;;;23.73;;
4744;SDS011;2386;42.138;24.746;2023-12-07T07:55:56;40.30;;;23.97;;
4744;SDS011;2386;42.138;24.746;2023-12-07T07:58:21;40.37;;;23.27;;
4744;SDS011;2386;42.138;24.746;2023-12-07T08:00:47;41.73;;;21.07;;
4744;SDS011;2386;42.138;24.746;2023-12-07T08:03:12;35.40;;;21.90;;
4744;SDS011;2386;42.138;24.746;2023-12-07T08:05:38;38.37;;;20.93;;
4744;SDS011;2386;42.138;24.746;2023-12-07T08:08:03;38.40;;;22.23;;
4744;SDS011;2386;42.138;24.746;2023-12-07T08:10:29;41.27;;;23.10;;
4744;SDS011;2386;42.138;24.746;2023-12-07T08:12:54;47.50;;;24.23;;
4744;SDS011;2386;42.138;24.746;2023-12-07T08:15:19;38.30;;;22.63;;
4744;SDS011;2386;42.138;24.746;2023-12-07T08:17:46;38.37;;;22.30;;
4744;SDS011;2386;42.138;24.746;2023-12-07T08:20:12;38.73;;;23.20;;
4744;SDS011;2386;42.138;24.746;2023-12-07T08:22:41;44.60;;;23.30;;
4744;SDS011;2386;42.138;24.746;2023-12-07T08:25:16;35.50;;;22.17;;
4744;SDS011;2386;42.138;24.746;2023-12-07T08:27:42;40.43;;;21.30;;
4744;SDS011;2386;42.138;24.746;2023-12-07T08:30:10;37.67;;;23.50;;
4744;SDS011;2386;42.138;24.746;2023-12-07T08:32:36;38.07;;;22.80;;
4744;SDS011;2386;42.138;24.746;2023-12-07T08:35:02;35.90;;;22.80;;
4744;SDS011;2386;42.138;24.746;2023-12-07T08:37:28;32.90;;;21.77;;
4744;SDS011;2386;42.138;24.746;2023-12-07T08:39:53;37.23;;;22.20;;
4744;SDS011;2386;42.138;24.746;2023-12-07T08:42:19;36.93;;;21.77;;
4744;SDS011;2386;42.138;24.746;2023-12-07T08:44:45;37.93;;;21.03;;
4744;SDS011;2386;42.138;24.746;2023-12-07T08:47:10;37.10;;;22.20;;
4744;SDS011;2386;42.138;24.746;2023-12-07T08:49:36;32.27;;;19.87;;
4744;SDS011;2386;42.138;24.746;2023-12-07T08:52:01;36.20;;;19.20;;
4744;SDS011;2386;42.138;24.746;2023-12-07T08:54:27;31.80;;;19.80;;
4744;SDS011;2386;42.138;24.746;2023-12-07T08:56:53;37.97;;;23.83;;
4744;SDS011;2386;42.138;24.746;2023-12-07T08:59:18;35.03;;;19.73;;
4744;SDS011;2386;42.138;24.746;2023-12-07T09:01:43;33.50;;;19.70;;
4744;SDS011;2386;42.138;24.746;2023-12-07T09:04:09;40.43;;;21.80;;
4744;SDS011;2386;42.138;24.746;2023-12-07T09:06:35;34.90;;;22.40;;
4744;SDS011;2386;42.138;24.746;2023-12-07T09:09:01;33.47;;;20.27;;
4744;SDS011;2386;42.138;24.746;2023-12-07T09:11:29;36.53;;;21.67;;
4744;SDS011;2386;42.138;24.746;2023-12-07T09:13:55;30.80;;;21.10;;
4744;SDS011;2386;42.138;24.746;2023-12-07T09:16:20;35.07;;;21.37;;
4744;SDS011;2386;42.138;24.746;2023-12-07T09:18:46;31.70;;;21.70;;
4744;SDS011;2386;42.138;24.746;2023-12-07T09:21:12;53.40;;;22.47;;
4744;SDS011;2386;42.138;24.746;2023-12-07T09:23:37;66.70;;;24.10;;
4744;SDS011;2386;42.138;24.746;2023-12-07T09:26:03;42.83;;;22.47;;
4744;SDS011;2386;42.138;24.746;2023-12-07T09:28:28;147.13;;;79.73;;
4744;SDS011;2386;42.138;24.746;2023-12-07T09:31:08;106.63;;;59.87;;
4744;SDS011;2386;42.138;24.746;2023-12-07T09:33:33;44.40;;;27.70;;
4744;SDS011;2386;42.138;24.746;2023-12-07T09:35:59;30.63;;;19.37;;
4744;SDS011;2386;42.138;24.746;2023-12-07T09:38:24;30.70;;;18.60;;
4744;SDS011;2386;42.138;24.746;2023-12-07T09:40:53;31.73;;;17.90;;
4744;SDS011;2386;42.138;24.746;2023-12-07T09:43:19;26.97;;;17.33;;
4744;SDS011;2386;42.138;24.746;2023-12-07T09:45:45;26.57;;;16.97;;
4744;SDS011;2386;42.138;24.746;2023-12-07T09:48:10;26.83;;;16.87;;
4744;SDS011;2386;42.138;24.746;2023-12-07T09:50:35;26.13;;;15.90;;
4744;SDS011;2386;42.138;24.746;2023-12-07T09:53:02;35.23;;;15.57;;
4744;SDS011;2386;42.138;24.746;2023-12-07T09:55:27;19.70;;;11.90;;
4744;SDS011;2386;42.138;24.746;2023-12-07T09:57:53;21.23;;;13.07;;
4744;SDS011;2386;42.138;24.746;2023-12-07T10:00:22;25.20;;;12.60;;
4744;SDS011;2386;42.138;24.746;2023-12-07T10:02:47;15.43;;;10.90;;
4744;SDS011;2386;42.138;24.746;2023-12-07T10:05:15;15.83;;;10.80;;
4744;SDS011;2386;42.138;24.746;2023-12-07T10:07:44;18.33;;;11.80;;
4744;SDS011;2386;42.138;24.746;2023-12-07T10:10:12;30.37;;;19.60;;
4744;SDS011;2386;42.138;24.746;2023-12-07T10:12:54;41.33;;;23.93;;
4744;SDS011;2386;42.138;24.746;2023-12-07T10:15:23;25.60;;;15.93;;
4744;SDS011;2386;42.138;24.746;2023-12-07T10:17:51;18.67;;;12.60;;
4744;SDS011;2386;42.138;24.746;2023-12-07T10:20:19;18.70;;;11.60;;
4744;SDS011;2386;42.138;24.746;2023-12-07T10:22:48;21.20;;;10.97;;
4744;SDS011;2386;42.138;24.746;2023-12-07T10:25:26;27.83;;;11.23;;
4744;SDS011;2386;42.138;24.746;2023-12-07T10:27:51;16.27;;;10.20;;
4744;SDS011;2386;42.138;24.746;2023-12-07T10:30:17;20.00;;;10.57;;
4744;SDS011;2386;42.138;24.746;2023-12-07T10:32:46;22.23;;;11.57;;
4744;SDS011;2386;42.138;24.746;2023-12-07T10:35:12;17.50;;;10.63;;
4744;SDS011;2386;42.138;24.746;2023-12-07T10:37:38;17.87;;;11.60;;
4744;SDS011;2386;42.138;24.746;2023-12-07T10:40:04;15.97;;;10.23;;
4744;SDS011;2386;42.138;24.746;2023-12-07T10:42:32;18.07;;;10.63;;
4744;SDS011;2386;42.138;24.746;2023-12-07T10:45:02;20.20;;;10.87;;
4744;SDS011;2386;42.138;24.746;2023-12-07T10:47:30;16.50;;;11.00;;
4744;SDS011;2386;42.138;24.746;2023-12-07T10:50:00;19.13;;;10.13;;
4744;SDS011;2386;42.138;24.746;2023-12-07T10:52:27;19.37;;;10.60;;
4744;SDS011;2386;42.138;24.746;2023-12-07T10:55:05;16.30;;;11.00;;
4744;SDS011;2386;42.138;24.746;2023-12-07T10:57:32;14.47;;;10.20;;
4744;SDS011;2386;42.138;24.746;2023-12-07T11:00:00;15.40;;;10.60;;
4744;SDS011;2386;42.138;24.746;2023-12-07T11:02:26;21.33;;;14.80;;
4744;SDS011;2386;42.138;24.746;2023-12-07T11:04:54;27.70;;;15.50;;
4744;SDS011;2386;42.138;24.746;2023-12-07T11:07:21;21.00;;;13.47;;
4744;SDS011;2386;42.138;24.746;2023-12-07T11:09:53;21.20;;;10.80;;
4744;SDS011;2386;42.138;24.746;2023-12-07T11:12:29;21.83;;;11.07;;
4744;SDS011;2386;42.138;24.746;2023-12-07T11:15:01;22.03;;;11.13;;
4744;SDS011;2386;42.138;24.746;2023-12-07T11:17:27;15.60;;;9.80;;
4744;SDS011;2386;42.138;24.746;2023-12-07T11:19:53;17.03;;;10.37;;
4744;SDS011;2386;42.138;24.746;2023-12-07T11:22:19;16.43;;;10.90;;
4744;SDS011;2386;42.138;24.746;2023-12-07T11:24:54;16.83;;;10.57;;
4744;SDS011;2386;42.138;24.746;2023-12-07T11:27:24;16.47;;;10.00;;
4744;SDS011;2386;42.138;24.746;2023-12-07T11:29:50;18.50;;;10.80;;
4744;SDS011;2386;42.138;24.746;2023-12-07T11:32:16;14.33;;;9.33;;
4744;SDS011;2386;42.138;24.746;2023-12-07T11:34:42;17.60;;;11.53;;
4744;SDS011;2386;42.138;24.746;2023-12-07T11:37:09;14.90;;;10.60;;
4744;SDS011;2386;42.138;24.746;2023-12-07T11:39:44;13.67;;;9.20;;
4744;SDS011;2386;42.138;24.746;2023-12-07T11:42:17;21.20;;;11.80;;
4744;SDS011;2386;42.138;24.746;2023-12-07T11:44:47;14.63;;;9.70;;
4744;SDS011;2386;42.138;24.746;2023-12-07T11:47:18;13.47;;;9.30;;
4744;SDS011;2386;42.138;24.746;2023-12-07T11:49:45;14.13;;;8.87;;
4744;SDS011;2386;42.138;24.746;2023-12-07T11:52:12;15.53;;;10.53;;
4744;SDS011;2386;42.138;24.746;2023-12-07T11:54:39;52.77;;;31.80;;
4744;SDS011;2386;42.138;24.746;2023-12-07T11:57:05;12.77;;;9.13;;
4744;SDS011;2386;42.138;24.746;2023-12-07T11:59:30;13.63;;;9.07;;
4744;SDS011;2386;42.138;24.746;2023-12-07T12:01:58;11.60;;;8.03;;
4744;SDS011;2386;42.138;24.746;2023-12-07T12:04:24;9.80;;;7.10;;
4744;SDS011;2386;42.138;24.746;2023-12-07T12:06:49;19.30;;;11.47;;
4744;SDS011;2386;42.138;24.746;2023-12-07T12:09:15;16.80;;;8.90;;
4744;SDS011;2386;42.138;24.746;2023-12-07T12:11:44;14.83;;;9.03;;
4744;SDS011;2386;42.138;24.746;2023-12-07T12:14:11;12.70;;;9.60;;
4744;SDS011;2386;42.138;24.746;2023-12-07T12:16:38;11.70;;;8.73;;
4744;SDS011;2386;42.138;24.746;2023-12-07T12:19:04;13.43;;;9.03;;
4744;SDS011;2386;42.138;24.746;2023-12-07T12:21:33;13.30;;;8.87;;
4744;SDS011;2386;42.138;24.746;2023-12-07T12:23:59;13.80;;;9.00;;
4744;SDS011;2386;42.138;24.746;2023-12-07T12:26:24;12.17;;;8.47;;
4744;SDS011;2386;42.138;24.746;2023-12-07T12:28:50;14.33;;;8.90;;
4744;SDS011;2386;42.138;24.746;2023-12-07T12:31:17;15.03;;;9.27;;
4744;SDS011;2386;42.138;24.746;2023-12-07T12:33:43;17.80;;;10.20;;
4744;SDS011;2386;42.138;24.746;2023-12-07T12:36:08;18.17;;;9.77;;
4744;SDS011;2386;42.138;24.746;2023-12-07T12:38:36;28.73;;;10.37;;
4744;SDS011;2386;42.138;24.746;2023-12-07T12:41:02;17.43;;;10.07;;
4744;SDS011;2386;42.138;24.746;2023-12-07T12:43:29;18.40;;;9.90;;
4744;SDS011;2386;42.138;24.746;2023-12-07T12:48:53;16.73;;;10.47;;
4744;SDS011;2386;42.138;24.746;2023-12-07T12:51:23;18.23;;;11.30;;
4744;SDS011;2386;42.138;24.746;2023-12-07T12:53:50;24.27;;;11.93;;
4744;SDS011;2386;42.138;24.746;2023-12-07T12:56:17;15.03;;;11.50;;
4744;SDS011;2386;42.138;24.746;2023-12-07T12:58:43;19.23;;;11.67;;
4744;SDS011;2386;42.138;24.746;2023-12-07T13:01:09;15.23;;;10.40;;
4744;SDS011;2386;42.138;24.746;2023-12-07T13:03:35;19.07;;;11.47;;
4744;SDS011;2386;42.138;24.746;2023-12-07T13:06:02;14.80;;;10.27;;
4744;SDS011;2386;42.138;24.746;2023-12-07T13:08:28;15.20;;;10.50;;
4744;SDS011;2386;42.138;24.746;2023-12-07T13:10:53;19.30;;;9.77;;
4744;SDS011;2386;42.138;24.746;2023-12-07T13:13:19;20.30;;;11.20;;
4744;SDS011;2386;42.138;24.746;2023-12-07T13:15:44;15.13;;;9.83;;
4744;SDS011;2386;42.138;24.746;2023-12-07T13:18:09;14.70;;;8.80;;
4744;SDS011;2386;42.138;24.746;2023-12-07T13:20:35;16.97;;;10.20;;
4744;SDS011;2386;42.138;24.746;2023-12-07T13:23:00;13.40;;;9.30;;
4744;SDS011;2386;42.138;24.746;2023-12-07T13:25:26;13.33;;;8.93;;
4744;SDS011;2386;42.138;24.746;2023-12-07T13:27:51;12.27;;;8.87;;
4744;SDS011;2386;42.138;24.746;2023-12-07T13:30:17;15.13;;;9.40;;
4744;SDS011;2386;42.138;24.746;2023-12-07T13:32:42;13.83;;;9.63;;
4744;SDS011;2386;42.138;24.746;2023-12-07T13:35:08;19.93;;;9.17;;
4744;SDS011;2386;42.138;24.746;2023-12-07T13:37:33;17.23;;;9.50;;
4744;SDS011;2386;42.138;24.746;2023-12-07T13:39:59;13.67;;;9.77;;
4744;SDS011;2386;42.138;24.746;2023-12-07T13:42:25;18.37;;;10.70;;
4744;SDS011;2386;42.138;24.746;2023-12-07T13:44:57;15.30;;;10.20;;
4744;SDS011;2386;42.138;24.746;2023-12-07T13:47:25;19.60;;;9.93;;
4744;SDS011;2386;42.138;24.746;2023-12-07T13:50:00;18.40;;;10.30;;
4744;SDS011;2386;42.138;24.746;2023-12-07T13:52:28;16.33;;;10.57;;
4744;SDS011;2386;42.138;24.746;2023-12-07T13:54:54;18.03;;;10.13;;
4744;SDS011;2386;42.138;24.746;2023-12-07T13:57:20;17.20;;;10.60;;
4744;SDS011;2386;42.138;24.746;2023-12-07T13:59:49;26.30;;;11.60;;
4744;SDS011;2386;42.138;24.746;2023-12-07T14:02:15;23.27;;;10.40;;
4744;SDS011;2386;42.138;24.746;2023-12-07T14:04:41;19.50;;;11.90;;
4744;SDS011;2386;42.138;24.746;2023-12-07T14:07:13;20.67;;;11.50;;
4744;SDS011;2386;42.138;24.746;2023-12-07T14:09:40;22.90;;;12.00;;
4744;SDS011;2386;42.138;24.746;2023-12-07T14:12:08;21.20;;;11.83;;
4744;SDS011;2386;42.138;24.746;2023-12-07T14:14:34;27.17;;;13.27;;
4744;SDS011;2386;42.138;24.746;2023-12-07T14:16:59;21.67;;;13.67;;
4744;SDS011;2386;42.138;24.746;2023-12-07T14:19:25;26.53;;;14.20;;
4744;SDS011;2386;42.138;24.746;2023-12-07T14:21:50;26.63;;;14.37;;
4744;SDS011;2386;42.138;24.746;2023-12-07T14:24:16;31.03;;;16.73;;
4744;SDS011;2386;42.138;24.746;2023-12-07T14:26:42;29.00;;;16.13;;
4744;SDS011;2386;42.138;24.746;2023-12-07T14:29:08;31.83;;;17.00;;
4744;SDS011;2386;42.138;24.746;2023-12-07T14:31:35;30.77;;;16.90;;
4744;SDS011;2386;42.138;24.746;2023-12-07T14:34:02;25.97;;;15.73;;
4744;SDS011;2386;42.138;24.746;2023-12-07T14:36:28;26.70;;;16.03;;